sensor_id;sensor_type;location;lat;lon;timestamp;temperature;humidity
74458;SHT31;62896;51.032;3.712;2023-03-21T00:02:43;10.2;87
74458;SHT31;62896;51.032;3.712;2023-03-21T00:06:04;10.3;86
74458;SHT31;62896;51.032;3.712;2023-03-21T00:09:23;10.3;86
74458;SHT31;62896;51.032;3.712;2023-03-21T00:12:43;10.3;86
74458;SHT31;62896;51.032;3.712;2023-03-21T00:16:04;10.4;85
74458;SHT31;62896;51.032;3.712;2023-03-21T00:19:23;10.4;85
74458;SHT31;62896;51.032;3.712;2023-03-21T00:22:43;10.4;85
74458;SHT31;62896;51.032;3.712;2023-03-21T00:26:03;10.4;85
74458;SHT31;62896;51.032;3.712;2023-03-21T00:29:23;10.4;85
74458;SHT31;62896;51.032;3.712;2023-03-21T00:32:44;10.4;85
74458;SHT31;62896;51.032;3.712;2023-03-21T00:36:03;10.4;85
74458;SHT31;62896;51.032;3.712;2023-03-21T00:39:23;10.4;85
74458;SHT31;62896;51.032;3.712;2023-03-21T00:42:43;10.4;85
74458;SHT31;62896;51.032;3.712;2023-03-21T00:46:03;10.4;85
74458;SHT31;62896;51.032;3.712;2023-03-21T00:49:23;10.4;85
74458;SHT31;62896;51.032;3.712;2023-03-21T00:52:43;10.4;85
74458;SHT31;62896;51.032;3.712;2023-03-21T00:56:03;10.4;85
74458;SHT31;62896;51.032;3.712;2023-03-21T00:59:23;10.4;85
74458;SHT31;62896;51.032;3.712;2023-03-21T01:02:43;10.4;85
74458;SHT31;62896;51.032;3.712;2023-03-21T01:06:03;10.4;85
74458;SHT31;62896;51.032;3.712;2023-03-21T01:09:23;10.4;85
74458;SHT31;62896;51.032;3.712;2023-03-21T01:12:43;10.4;85
74458;SHT31;62896;51.032;3.712;2023-03-21T01:16:03;10.3;84
74458;SHT31;62896;51.032;3.712;2023-03-21T01:19:24;10.3;84
74458;SHT31;62896;51.032;3.712;2023-03-21T01:22:43;10.3;84
74458;SHT31;62896;51.032;3.712;2023-03-21T01:26:03;10.3;84
74458;SHT31;62896;51.032;3.712;2023-03-21T01:29:23;10.3;84
74458;SHT31;62896;51.032;3.712;2023-03-21T01:32:43;10.3;84
74458;SHT31;62896;51.032;3.712;2023-03-21T01:36:03;10.3;84
74458;SHT31;62896;51.032;3.712;2023-03-21T01:39:23;10.3;84
74458;SHT31;62896;51.032;3.712;2023-03-21T01:42:43;10.3;84
74458;SHT31;62896;51.032;3.712;2023-03-21T01:46:11;10.3;84
74458;SHT31;62896;51.032;3.712;2023-03-21T01:49:24;10.3;84
74458;SHT31;62896;51.032;3.712;2023-03-21T01:52:43;10.3;84
74458;SHT31;62896;51.032;3.712;2023-03-21T01:56:05;10.3;83
74458;SHT31;62896;51.032;3.712;2023-03-21T01:59:24;10.3;83
74458;SHT31;62896;51.032;3.712;2023-03-21T02:02:43;10.3;83
74458;SHT31;62896;51.032;3.712;2023-03-21T02:06:05;10.3;83
74458;SHT31;62896;51.032;3.712;2023-03-21T02:09:24;10.3;83
74458;SHT31;62896;51.032;3.712;2023-03-21T02:12:43;10.3;83
74458;SHT31;62896;51.032;3.712;2023-03-21T02:16:05;10.3;83
74458;SHT31;62896;51.032;3.712;2023-03-21T02:19:52;10.3;83
74458;SHT31;62896;51.032;3.712;2023-03-21T02:22:51;10.3;83
74458;SHT31;62896;51.032;3.712;2023-03-21T02:26:10;10.2;83
74458;SHT31;62896;51.032;3.712;2023-03-21T02:29:29;10.2;83
74458;SHT31;62896;51.032;3.712;2023-03-21T02:32:51;10.2;83
74458;SHT31;62896;51.032;3.712;2023-03-21T02:36:08;10.3;83
74458;SHT31;62896;51.032;3.712;2023-03-21T02:39:23;10.3;83
74458;SHT31;62896;51.032;3.712;2023-03-21T02:42:47;10.3;83
74458;SHT31;62896;51.032;3.712;2023-03-21T02:46:04;10.3;83
74458;SHT31;62896;51.032;3.712;2023-03-21T02:49:24;10.3;83
74458;SHT31;62896;51.032;3.712;2023-03-21T02:52:44;10.3;83
74458;SHT31;62896;51.032;3.712;2023-03-21T02:56:03;10.3;83
74458;SHT31;62896;51.032;3.712;2023-03-21T02:59:23;10.3;83
74458;SHT31;62896;51.032;3.712;2023-03-21T03:02:43;10.3;83
74458;SHT31;62896;51.032;3.712;2023-03-21T03:09:25;10.3;83
74458;SHT31;62896;51.032;3.712;2023-03-21T03:12:44;10.3;83
74458;SHT31;62896;51.032;3.712;2023-03-21T03:16:06;10.4;83
74458;SHT31;62896;51.032;3.712;2023-03-21T03:19:24;10.4;83
74458;SHT31;62896;51.032;3.712;2023-03-21T03:22:45;10.4;83
74458;SHT31;62896;51.032;3.712;2023-03-21T03:26:04;10.4;83
74458;SHT31;62896;51.032;3.712;2023-03-21T03:29:23;10.4;83
74458;SHT31;62896;51.032;3.712;2023-03-21T03:32:44;10.4;83
74458;SHT31;62896;51.032;3.712;2023-03-21T03:36:03;10.5;83
74458;SHT31;62896;51.032;3.712;2023-03-21T03:39:24;10.5;83
74458;SHT31;62896;51.032;3.712;2023-03-21T03:42:44;10.5;83
74458;SHT31;62896;51.032;3.712;2023-03-21T03:46:05;10.6;82
74458;SHT31;62896;51.032;3.712;2023-03-21T03:49:24;10.6;82
74458;SHT31;62896;51.032;3.712;2023-03-21T03:52:44;10.6;82
74458;SHT31;62896;51.032;3.712;2023-03-21T03:56:03;10.6;82
74458;SHT31;62896;51.032;3.712;2023-03-21T03:59:24;10.6;82
74458;SHT31;62896;51.032;3.712;2023-03-21T04:02:44;10.6;82
74458;SHT31;62896;51.032;3.712;2023-03-21T04:06:03;10.7;82
74458;SHT31;62896;51.032;3.712;2023-03-21T04:09:24;10.7;82
74458;SHT31;62896;51.032;3.712;2023-03-21T04:12:43;10.7;82
74458;SHT31;62896;51.032;3.712;2023-03-21T04:16:03;10.7;83
74458;SHT31;62896;51.032;3.712;2023-03-21T04:19:23;10.7;83
74458;SHT31;62896;51.032;3.712;2023-03-21T04:22:43;10.7;83
74458;SHT31;62896;51.032;3.712;2023-03-21T04:26:03;10.6;85
74458;SHT31;62896;51.032;3.712;2023-03-21T04:29:23;10.6;85
74458;SHT31;62896;51.032;3.712;2023-03-21T04:32:43;10.6;85
74458;SHT31;62896;51.032;3.712;2023-03-21T04:36:04;10.4;87
74458;SHT31;62896;51.032;3.712;2023-03-21T04:39:23;10.4;87
74458;SHT31;62896;51.032;3.712;2023-03-21T04:42:43;10.4;87
74458;SHT31;62896;51.032;3.712;2023-03-21T04:46:03;10.2;88
74458;SHT31;62896;51.032;3.712;2023-03-21T04:49:23;10.2;88
74458;SHT31;62896;51.032;3.712;2023-03-21T04:52:43;10.2;88
74458;SHT31;62896;51.032;3.712;2023-03-21T04:56:04;10.1;89
74458;SHT31;62896;51.032;3.712;2023-03-21T04:59:23;10.1;89
74458;SHT31;62896;51.032;3.712;2023-03-21T05:02:43;10.1;89
74458;SHT31;62896;51.032;3.712;2023-03-21T05:06:04;10.1;89
74458;SHT31;62896;51.032;3.712;2023-03-21T05:09:23;10.1;89
74458;SHT31;62896;51.032;3.712;2023-03-21T05:12:43;10.1;89
74458;SHT31;62896;51.032;3.712;2023-03-21T05:16:04;10;91
74458;SHT31;62896;51.032;3.712;2023-03-21T05:19:24;10;91
74458;SHT31;62896;51.032;3.712;2023-03-21T05:22:43;10;91
74458;SHT31;62896;51.032;3.712;2023-03-21T05:26:04;9.9;92
74458;SHT31;62896;51.032;3.712;2023-03-21T05:29:23;9.9;92
74458;SHT31;62896;51.032;3.712;2023-03-21T05:32:43;9.9;92
74458;SHT31;62896;51.032;3.712;2023-03-21T05:36:03;9.9;92
74458;SHT31;62896;51.032;3.712;2023-03-21T05:39:23;9.9;92
74458;SHT31;62896;51.032;3.712;2023-03-21T05:42:44;9.9;92
74458;SHT31;62896;51.032;3.712;2023-03-21T05:46:03;9.9;92
74458;SHT31;62896;51.032;3.712;2023-03-21T05:49:23;9.9;92
74458;SHT31;62896;51.032;3.712;2023-03-21T05:52:43;9.9;92
74458;SHT31;62896;51.032;3.712;2023-03-21T05:56:03;10;92
74458;SHT31;62896;51.032;3.712;2023-03-21T05:59:23;10;92
74458;SHT31;62896;51.032;3.712;2023-03-21T06:02:43;10;92
74458;SHT31;62896;51.032;3.712;2023-03-21T06:06:03;10;92
74458;SHT31;62896;51.032;3.712;2023-03-21T06:09:24;10;92
74458;SHT31;62896;51.032;3.712;2023-03-21T06:12:43;10;92
74458;SHT31;62896;51.032;3.712;2023-03-21T06:16:03;10.1;92
74458;SHT31;62896;51.032;3.712;2023-03-21T06:19:23;10.1;92
74458;SHT31;62896;51.032;3.712;2023-03-21T06:22:43;10.1;92
74458;SHT31;62896;51.032;3.712;2023-03-21T06:26:03;10.1;92
74458;SHT31;62896;51.032;3.712;2023-03-21T06:29:23;10.1;92
74458;SHT31;62896;51.032;3.712;2023-03-21T06:32:43;10.1;92
74458;SHT31;62896;51.032;3.712;2023-03-21T06:36:03;10.2;91
74458;SHT31;62896;51.032;3.712;2023-03-21T06:39:23;10.2;91
74458;SHT31;62896;51.032;3.712;2023-03-21T06:42:43;10.2;91
74458;SHT31;62896;51.032;3.712;2023-03-21T06:46:03;10.3;91
74458;SHT31;62896;51.032;3.712;2023-03-21T06:49:23;10.3;91
74458;SHT31;62896;51.032;3.712;2023-03-21T06:52:43;10.3;91
74458;SHT31;62896;51.032;3.712;2023-03-21T06:56:04;10.4;90
74458;SHT31;62896;51.032;3.712;2023-03-21T06:59:23;10.4;90
74458;SHT31;62896;51.032;3.712;2023-03-21T07:02:43;10.4;90
74458;SHT31;62896;51.032;3.712;2023-03-21T07:06:04;10.5;89
74458;SHT31;62896;51.032;3.712;2023-03-21T07:09:23;10.5;89
74458;SHT31;62896;51.032;3.712;2023-03-21T07:12:43;10.5;89
74458;SHT31;62896;51.032;3.712;2023-03-21T07:16:04;10.6;88
74458;SHT31;62896;51.032;3.712;2023-03-21T07:19:23;10.6;88
74458;SHT31;62896;51.032;3.712;2023-03-21T07:22:43;10.6;88
74458;SHT31;62896;51.032;3.712;2023-03-21T07:26:04;10.8;88
74458;SHT31;62896;51.032;3.712;2023-03-21T07:29:23;10.8;88
74458;SHT31;62896;51.032;3.712;2023-03-21T07:32:44;10.8;88
74458;SHT31;62896;51.032;3.712;2023-03-21T07:36:08;10.9;87
74458;SHT31;62896;51.032;3.712;2023-03-21T07:39:23;10.9;87
74458;SHT31;62896;51.032;3.712;2023-03-21T07:42:43;10.9;87
74458;SHT31;62896;51.032;3.712;2023-03-21T07:46:03;11.1;86
74458;SHT31;62896;51.032;3.712;2023-03-21T07:49:23;11.1;86
74458;SHT31;62896;51.032;3.712;2023-03-21T07:52:43;11.1;86
74458;SHT31;62896;51.032;3.712;2023-03-21T07:56:04;11.2;86
74458;SHT31;62896;51.032;3.712;2023-03-21T07:59:23;11.2;86
74458;SHT31;62896;51.032;3.712;2023-03-21T08:02:43;11.2;86
74458;SHT31;62896;51.032;3.712;2023-03-21T08:06:04;11.4;85
74458;SHT31;62896;51.032;3.712;2023-03-21T08:09:23;11.4;85
74458;SHT31;62896;51.032;3.712;2023-03-21T08:12:44;11.4;85
74458;SHT31;62896;51.032;3.712;2023-03-21T08:16:04;11.5;83
74458;SHT31;62896;51.032;3.712;2023-03-21T08:19:23;11.5;83
74458;SHT31;62896;51.032;3.712;2023-03-21T08:22:43;11.5;83
74458;SHT31;62896;51.032;3.712;2023-03-21T08:26:03;11.8;82
74458;SHT31;62896;51.032;3.712;2023-03-21T08:29:23;11.8;82
74458;SHT31;62896;51.032;3.712;2023-03-21T08:32:43;11.8;82
74458;SHT31;62896;51.032;3.712;2023-03-21T08:36:04;12.1;81
74458;SHT31;62896;51.032;3.712;2023-03-21T08:39:23;12.1;81
74458;SHT31;62896;51.032;3.712;2023-03-21T08:42:44;12.1;81
74458;SHT31;62896;51.032;3.712;2023-03-21T08:46:03;12.1;80
74458;SHT31;62896;51.032;3.712;2023-03-21T08:49:23;12.1;80
74458;SHT31;62896;51.032;3.712;2023-03-21T08:52:43;12.1;80
74458;SHT31;62896;51.032;3.712;2023-03-21T08:56:04;12.1;80
74458;SHT31;62896;51.032;3.712;2023-03-21T08:59:23;12.1;80
74458;SHT31;62896;51.032;3.712;2023-03-21T09:02:44;12.1;80
74458;SHT31;62896;51.032;3.712;2023-03-21T09:06:03;12.1;80
74458;SHT31;62896;51.032;3.712;2023-03-21T09:09:23;12.1;80
74458;SHT31;62896;51.032;3.712;2023-03-21T09:12:43;12.1;80
74458;SHT31;62896;51.032;3.712;2023-03-21T09:16:04;12.2;79
74458;SHT31;62896;51.032;3.712;2023-03-21T09:19:23;12.2;79
74458;SHT31;62896;51.032;3.712;2023-03-21T09:22:44;12.2;79
74458;SHT31;62896;51.032;3.712;2023-03-21T09:26:04;12.1;79
74458;SHT31;62896;51.032;3.712;2023-03-21T09:29:23;12.1;79
74458;SHT31;62896;51.032;3.712;2023-03-21T09:32:43;12.1;79
74458;SHT31;62896;51.032;3.712;2023-03-21T09:36:04;12.3;78
74458;SHT31;62896;51.032;3.712;2023-03-21T09:39:23;12.3;78
74458;SHT31;62896;51.032;3.712;2023-03-21T09:42:45;12.3;78
74458;SHT31;62896;51.032;3.712;2023-03-21T09:46:05;12.6;77
74458;SHT31;62896;51.032;3.712;2023-03-21T09:49:24;12.6;77
74458;SHT31;62896;51.032;3.712;2023-03-21T09:52:44;12.6;77
74458;SHT31;62896;51.032;3.712;2023-03-21T09:56:04;12.7;75
74458;SHT31;62896;51.032;3.712;2023-03-21T09:59:24;12.7;75
74458;SHT31;62896;51.032;3.712;2023-03-21T10:02:44;12.7;75
74458;SHT31;62896;51.032;3.712;2023-03-21T10:06:04;12.9;75
74458;SHT31;62896;51.032;3.712;2023-03-21T10:09:23;12.9;75
74458;SHT31;62896;51.032;3.712;2023-03-21T10:12:44;12.9;75
74458;SHT31;62896;51.032;3.712;2023-03-21T10:16:08;12.8;75
74458;SHT31;62896;51.032;3.712;2023-03-21T10:19:23;12.8;75
74458;SHT31;62896;51.032;3.712;2023-03-21T10:22:44;12.8;75
74458;SHT31;62896;51.032;3.712;2023-03-21T10:26:04;12.5;76
74458;SHT31;62896;51.032;3.712;2023-03-21T10:29:25;12.5;76
74458;SHT31;62896;51.032;3.712;2023-03-21T10:32:43;12.5;76
74458;SHT31;62896;51.032;3.712;2023-03-21T10:36:04;12.4;76
74458;SHT31;62896;51.032;3.712;2023-03-21T10:39:25;12.4;76
74458;SHT31;62896;51.032;3.712;2023-03-21T10:42:43;12.4;76
74458;SHT31;62896;51.032;3.712;2023-03-21T10:46:05;13;75
74458;SHT31;62896;51.032;3.712;2023-03-21T10:49:24;13;75
74458;SHT31;62896;51.032;3.712;2023-03-21T10:52:44;13;75
74458;SHT31;62896;51.032;3.712;2023-03-21T10:56:05;14.2;72
74458;SHT31;62896;51.032;3.712;2023-03-21T10:59:24;14.2;72
74458;SHT31;62896;51.032;3.712;2023-03-21T11:02:45;14.2;72
74458;SHT31;62896;51.032;3.712;2023-03-21T11:06:04;14.3;70
74458;SHT31;62896;51.032;3.712;2023-03-21T11:09:24;14.3;70
74458;SHT31;62896;51.032;3.712;2023-03-21T11:12:45;14.3;70
74458;SHT31;62896;51.032;3.712;2023-03-21T11:16:05;13.9;70
74458;SHT31;62896;51.032;3.712;2023-03-21T11:19:25;13.9;70
74458;SHT31;62896;51.032;3.712;2023-03-21T11:22:44;13.9;70
74458;SHT31;62896;51.032;3.712;2023-03-21T11:26:07;14.1;70
74458;SHT31;62896;51.032;3.712;2023-03-21T11:29:26;14.1;70
74458;SHT31;62896;51.032;3.712;2023-03-21T11:32:43;14.1;70
74458;SHT31;62896;51.032;3.712;2023-03-21T11:36:04;14.2;70
74458;SHT31;62896;51.032;3.712;2023-03-21T11:39:27;14.2;70
74458;SHT31;62896;51.032;3.712;2023-03-21T11:42:45;14.2;70
74458;SHT31;62896;51.032;3.712;2023-03-21T11:46:04;13.8;71
74458;SHT31;62896;51.032;3.712;2023-03-21T11:49:24;13.8;71
74458;SHT31;62896;51.032;3.712;2023-03-21T11:52:46;13.8;71
74458;SHT31;62896;51.032;3.712;2023-03-21T11:56:08;14.3;70
74458;SHT31;62896;51.032;3.712;2023-03-21T11:59:27;14.3;70
74458;SHT31;62896;51.032;3.712;2023-03-21T12:02:49;14.3;70
74458;SHT31;62896;51.032;3.712;2023-03-21T12:06:04;14.3;70
74458;SHT31;62896;51.032;3.712;2023-03-21T12:09:27;14.3;70
74458;SHT31;62896;51.032;3.712;2023-03-21T12:12:45;14.3;70
74458;SHT31;62896;51.032;3.712;2023-03-21T12:16:09;14.1;71
74458;SHT31;62896;51.032;3.712;2023-03-21T12:19:30;14.1;71
74458;SHT31;62896;51.032;3.712;2023-03-21T12:22:46;14.1;71
74458;SHT31;62896;51.032;3.712;2023-03-21T12:26:09;13.8;73
74458;SHT31;62896;51.032;3.712;2023-03-21T12:29:30;13.8;73
74458;SHT31;62896;51.032;3.712;2023-03-21T12:32:47;13.8;73
74458;SHT31;62896;51.032;3.712;2023-03-21T12:36:07;13.8;73
74458;SHT31;62896;51.032;3.712;2023-03-21T12:39:26;13.8;73
74458;SHT31;62896;51.032;3.712;2023-03-21T12:42:51;13.8;73
74458;SHT31;62896;51.032;3.712;2023-03-21T12:46:04;13.6;74
74458;SHT31;62896;51.032;3.712;2023-03-21T12:49:25;13.6;74
74458;SHT31;62896;51.032;3.712;2023-03-21T12:52:45;13.6;74
74458;SHT31;62896;51.032;3.712;2023-03-21T12:56:04;13.4;75
74458;SHT31;62896;51.032;3.712;2023-03-21T12:59:26;13.4;75
74458;SHT31;62896;51.032;3.712;2023-03-21T13:02:45;13.4;75
74458;SHT31;62896;51.032;3.712;2023-03-21T13:06:04;13.2;77
74458;SHT31;62896;51.032;3.712;2023-03-21T13:09:25;13.2;77
74458;SHT31;62896;51.032;3.712;2023-03-21T13:12:44;13.2;77
74458;SHT31;62896;51.032;3.712;2023-03-21T13:16:05;13.2;78
74458;SHT31;62896;51.032;3.712;2023-03-21T13:19:25;13.2;78
74458;SHT31;62896;51.032;3.712;2023-03-21T13:22:44;13.2;78
74458;SHT31;62896;51.032;3.712;2023-03-21T13:26:06;13.1;79
74458;SHT31;62896;51.032;3.712;2023-03-21T13:29:24;13.1;79
74458;SHT31;62896;51.032;3.712;2023-03-21T13:32:44;13.1;79
74458;SHT31;62896;51.032;3.712;2023-03-21T13:36:04;13;80
74458;SHT31;62896;51.032;3.712;2023-03-21T13:39:24;13;80
74458;SHT31;62896;51.032;3.712;2023-03-21T13:42:44;13;80
74458;SHT31;62896;51.032;3.712;2023-03-21T13:46:05;12.8;84
74458;SHT31;62896;51.032;3.712;2023-03-21T13:49:24;12.8;84
74458;SHT31;62896;51.032;3.712;2023-03-21T13:52:49;12.8;84
74458;SHT31;62896;51.032;3.712;2023-03-21T13:56:20;12.4;89
74458;SHT31;62896;51.032;3.712;2023-03-21T13:59:40;12.4;89
74458;SHT31;62896;51.032;3.712;2023-03-21T14:03:00;12.4;89
74458;SHT31;62896;51.032;3.712;2023-03-21T14:06:04;12.3;91
74458;SHT31;62896;51.032;3.712;2023-03-21T14:09:24;12.3;91
74458;SHT31;62896;51.032;3.712;2023-03-21T14:12:44;12.3;91
74458;SHT31;62896;51.032;3.712;2023-03-21T14:16:04;12.2;91
74458;SHT31;62896;51.032;3.712;2023-03-21T14:19:27;12.2;91
74458;SHT31;62896;51.032;3.712;2023-03-21T14:22:45;12.2;91
74458;SHT31;62896;51.032;3.712;2023-03-21T14:26:04;12.5;90
74458;SHT31;62896;51.032;3.712;2023-03-21T14:29:24;12.5;90
74458;SHT31;62896;51.032;3.712;2023-03-21T14:32:44;12.5;90
74458;SHT31;62896;51.032;3.712;2023-03-21T14:36:05;12.8;88
74458;SHT31;62896;51.032;3.712;2023-03-21T14:39:25;12.8;88
74458;SHT31;62896;51.032;3.712;2023-03-21T14:42:44;12.8;88
74458;SHT31;62896;51.032;3.712;2023-03-21T14:46:04;13.2;87
74458;SHT31;62896;51.032;3.712;2023-03-21T14:49:25;13.2;87
74458;SHT31;62896;51.032;3.712;2023-03-21T14:52:44;13.2;87
74458;SHT31;62896;51.032;3.712;2023-03-21T14:56:05;14.6;81
74458;SHT31;62896;51.032;3.712;2023-03-21T14:59:24;14.6;81
74458;SHT31;62896;51.032;3.712;2023-03-21T15:02:44;14.6;81
74458;SHT31;62896;51.032;3.712;2023-03-21T15:06:04;14.2;81
74458;SHT31;62896;51.032;3.712;2023-03-21T15:09:25;14.2;81
74458;SHT31;62896;51.032;3.712;2023-03-21T15:12:52;14.2;81
74458;SHT31;62896;51.032;3.712;2023-03-21T15:16:04;13.6;82
74458;SHT31;62896;51.032;3.712;2023-03-21T15:19:27;13.6;82
74458;SHT31;62896;51.032;3.712;2023-03-21T15:22:44;13.6;82
74458;SHT31;62896;51.032;3.712;2023-03-21T15:26:04;13.4;83
74458;SHT31;62896;51.032;3.712;2023-03-21T15:29:24;13.4;83
74458;SHT31;62896;51.032;3.712;2023-03-21T15:32:44;13.4;83
74458;SHT31;62896;51.032;3.712;2023-03-21T15:36:07;13.5;82
74458;SHT31;62896;51.032;3.712;2023-03-21T15:39:26;13.5;82
74458;SHT31;62896;51.032;3.712;2023-03-21T15:42:44;13.5;82
74458;SHT31;62896;51.032;3.712;2023-03-21T15:46:11;13.8;80
74458;SHT31;62896;51.032;3.712;2023-03-21T15:49:25;13.8;80
74458;SHT31;62896;51.032;3.712;2023-03-21T15:52:44;13.8;80
74458;SHT31;62896;51.032;3.712;2023-03-21T15:56:04;13.8;80
74458;SHT31;62896;51.032;3.712;2023-03-21T15:59:25;13.8;80
74458;SHT31;62896;51.032;3.712;2023-03-21T16:02:44;13.8;80
74458;SHT31;62896;51.032;3.712;2023-03-21T16:06:05;13.8;79
74458;SHT31;62896;51.032;3.712;2023-03-21T16:09:24;13.8;79
74458;SHT31;62896;51.032;3.712;2023-03-21T16:12:44;13.8;79
74458;SHT31;62896;51.032;3.712;2023-03-21T16:16:04;13.8;79
74458;SHT31;62896;51.032;3.712;2023-03-21T16:19:24;13.8;79
74458;SHT31;62896;51.032;3.712;2023-03-21T16:22:44;13.8;79
74458;SHT31;62896;51.032;3.712;2023-03-21T16:26:04;13.9;79
74458;SHT31;62896;51.032;3.712;2023-03-21T16:29:24;13.9;79
74458;SHT31;62896;51.032;3.712;2023-03-21T16:32:44;13.9;79
74458;SHT31;62896;51.032;3.712;2023-03-21T16:36:04;13.8;79
74458;SHT31;62896;51.032;3.712;2023-03-21T16:39:24;13.8;79
74458;SHT31;62896;51.032;3.712;2023-03-21T16:42:44;13.8;79
74458;SHT31;62896;51.032;3.712;2023-03-21T16:46:04;13.7;79
74458;SHT31;62896;51.032;3.712;2023-03-21T16:49:25;13.7;79
74458;SHT31;62896;51.032;3.712;2023-03-21T16:52:44;13.7;79
74458;SHT31;62896;51.032;3.712;2023-03-21T16:56:04;13.6;80
74458;SHT31;62896;51.032;3.712;2023-03-21T16:59:24;13.6;80
74458;SHT31;62896;51.032;3.712;2023-03-21T17:02:44;13.6;80
74458;SHT31;62896;51.032;3.712;2023-03-21T17:06:04;13.5;80
74458;SHT31;62896;51.032;3.712;2023-03-21T17:09:24;13.5;80
74458;SHT31;62896;51.032;3.712;2023-03-21T17:12:44;13.5;80
74458;SHT31;62896;51.032;3.712;2023-03-21T17:16:04;13.4;80
74458;SHT31;62896;51.032;3.712;2023-03-21T17:19:24;13.4;80
74458;SHT31;62896;51.032;3.712;2023-03-21T17:22:44;13.4;80
74458;SHT31;62896;51.032;3.712;2023-03-21T17:26:04;13.4;80
74458;SHT31;62896;51.032;3.712;2023-03-21T17:29:24;13.4;80
74458;SHT31;62896;51.032;3.712;2023-03-21T17:32:44;13.4;80
74458;SHT31;62896;51.032;3.712;2023-03-21T17:36:04;13.5;80
74458;SHT31;62896;51.032;3.712;2023-03-21T17:39:24;13.5;80
74458;SHT31;62896;51.032;3.712;2023-03-21T17:42:44;13.5;80
74458;SHT31;62896;51.032;3.712;2023-03-21T17:46:04;13.5;80
74458;SHT31;62896;51.032;3.712;2023-03-21T17:49:24;13.5;80
74458;SHT31;62896;51.032;3.712;2023-03-21T17:52:44;13.5;80
74458;SHT31;62896;51.032;3.712;2023-03-21T17:56:04;13.4;79
74458;SHT31;62896;51.032;3.712;2023-03-21T17:59:24;13.4;79
74458;SHT31;62896;51.032;3.712;2023-03-21T18:02:44;13.4;79
74458;SHT31;62896;51.032;3.712;2023-03-21T18:06:04;13.2;77
74458;SHT31;62896;51.032;3.712;2023-03-21T18:09:24;13.2;77
74458;SHT31;62896;51.032;3.712;2023-03-21T18:12:44;13.2;77
74458;SHT31;62896;51.032;3.712;2023-03-21T18:16:04;13.1;77
74458;SHT31;62896;51.032;3.712;2023-03-21T18:19:24;13.1;77
74458;SHT31;62896;51.032;3.712;2023-03-21T18:22:44;13.1;77
74458;SHT31;62896;51.032;3.712;2023-03-21T18:26:04;12.8;77
74458;SHT31;62896;51.032;3.712;2023-03-21T18:29:24;12.8;77
74458;SHT31;62896;51.032;3.712;2023-03-21T18:32:44;12.8;77
74458;SHT31;62896;51.032;3.712;2023-03-21T18:36:04;12.6;77
74458;SHT31;62896;51.032;3.712;2023-03-21T18:39:24;12.6;77
74458;SHT31;62896;51.032;3.712;2023-03-21T18:42:44;12.6;77
74458;SHT31;62896;51.032;3.712;2023-03-21T18:46:04;12.4;77
74458;SHT31;62896;51.032;3.712;2023-03-21T18:49:24;12.4;77
74458;SHT31;62896;51.032;3.712;2023-03-21T18:52:44;12.4;77
74458;SHT31;62896;51.032;3.712;2023-03-21T18:56:04;12.2;79
74458;SHT31;62896;51.032;3.712;2023-03-21T18:59:24;12.2;79
74458;SHT31;62896;51.032;3.712;2023-03-21T19:02:45;12.2;79
74458;SHT31;62896;51.032;3.712;2023-03-21T19:06:04;12;80
74458;SHT31;62896;51.032;3.712;2023-03-21T19:09:24;12;80
74458;SHT31;62896;51.032;3.712;2023-03-21T19:12:44;12;80
74458;SHT31;62896;51.032;3.712;2023-03-21T19:16:04;11.8;80
74458;SHT31;62896;51.032;3.712;2023-03-21T19:19:24;11.8;80
74458;SHT31;62896;51.032;3.712;2023-03-21T19:22:44;11.8;80
74458;SHT31;62896;51.032;3.712;2023-03-21T19:26:04;11.6;80
74458;SHT31;62896;51.032;3.712;2023-03-21T19:29:24;11.6;80
74458;SHT31;62896;51.032;3.712;2023-03-21T19:32:44;11.6;80
74458;SHT31;62896;51.032;3.712;2023-03-21T19:36:04;11.5;79
74458;SHT31;62896;51.032;3.712;2023-03-21T19:39:24;11.5;79
74458;SHT31;62896;51.032;3.712;2023-03-21T19:42:44;11.5;79
74458;SHT31;62896;51.032;3.712;2023-03-21T19:46:04;11.4;78
74458;SHT31;62896;51.032;3.712;2023-03-21T19:49:24;11.4;78
74458;SHT31;62896;51.032;3.712;2023-03-21T19:52:44;11.4;78
74458;SHT31;62896;51.032;3.712;2023-03-21T19:56:04;11.3;78
74458;SHT31;62896;51.032;3.712;2023-03-21T19:59:24;11.3;78
74458;SHT31;62896;51.032;3.712;2023-03-21T20:02:44;11.3;78
74458;SHT31;62896;51.032;3.712;2023-03-21T20:06:04;11.1;79
74458;SHT31;62896;51.032;3.712;2023-03-21T20:09:24;11.1;79
74458;SHT31;62896;51.032;3.712;2023-03-21T20:12:44;11.1;79
74458;SHT31;62896;51.032;3.712;2023-03-21T20:16:04;11;80
74458;SHT31;62896;51.032;3.712;2023-03-21T20:19:24;11;80
74458;SHT31;62896;51.032;3.712;2023-03-21T20:22:45;11;80
74458;SHT31;62896;51.032;3.712;2023-03-21T20:26:06;10.9;80
74458;SHT31;62896;51.032;3.712;2023-03-21T20:29:24;10.9;80
74458;SHT31;62896;51.032;3.712;2023-03-21T20:32:44;10.9;80
74458;SHT31;62896;51.032;3.712;2023-03-21T20:36:04;10.8;81
74458;SHT31;62896;51.032;3.712;2023-03-21T20:39:24;10.8;81
74458;SHT31;62896;51.032;3.712;2023-03-21T20:42:44;10.8;81
74458;SHT31;62896;51.032;3.712;2023-03-21T20:46:04;10.7;81
74458;SHT31;62896;51.032;3.712;2023-03-21T20:49:24;10.7;81
74458;SHT31;62896;51.032;3.712;2023-03-21T20:52:44;10.7;81
74458;SHT31;62896;51.032;3.712;2023-03-21T20:56:04;10.6;82
74458;SHT31;62896;51.032;3.712;2023-03-21T20:59:24;10.6;82
74458;SHT31;62896;51.032;3.712;2023-03-21T21:02:45;10.6;82
74458;SHT31;62896;51.032;3.712;2023-03-21T21:06:07;10.4;82
74458;SHT31;62896;51.032;3.712;2023-03-21T21:09:24;10.4;82
74458;SHT31;62896;51.032;3.712;2023-03-21T21:12:44;10.4;82
74458;SHT31;62896;51.032;3.712;2023-03-21T21:16:04;10.3;82
74458;SHT31;62896;51.032;3.712;2023-03-21T21:19:24;10.3;82
74458;SHT31;62896;51.032;3.712;2023-03-21T21:22:44;10.3;82
74458;SHT31;62896;51.032;3.712;2023-03-21T21:26:04;10.2;83
74458;SHT31;62896;51.032;3.712;2023-03-21T21:29:24;10.2;83
74458;SHT31;62896;51.032;3.712;2023-03-21T21:32:44;10.2;83
74458;SHT31;62896;51.032;3.712;2023-03-21T21:36:04;10.1;83
74458;SHT31;62896;51.032;3.712;2023-03-21T21:39:24;10.1;83
74458;SHT31;62896;51.032;3.712;2023-03-21T21:42:44;10.1;83
74458;SHT31;62896;51.032;3.712;2023-03-21T21:46:04;10;84
74458;SHT31;62896;51.032;3.712;2023-03-21T21:49:24;10;84
74458;SHT31;62896;51.032;3.712;2023-03-21T21:52:44;10;84
74458;SHT31;62896;51.032;3.712;2023-03-21T21:56:04;10;84
74458;SHT31;62896;51.032;3.712;2023-03-21T21:59:24;10;84
74458;SHT31;62896;51.032;3.712;2023-03-21T22:02:44;10;84
74458;SHT31;62896;51.032;3.712;2023-03-21T22:06:04;10;84
74458;SHT31;62896;51.032;3.712;2023-03-21T22:09:24;10;84
74458;SHT31;62896;51.032;3.712;2023-03-21T22:12:44;10;84
74458;SHT31;62896;51.032;3.712;2023-03-21T22:16:04;10;84
74458;SHT31;62896;51.032;3.712;2023-03-21T22:19:24;10;84
74458;SHT31;62896;51.032;3.712;2023-03-21T22:22:44;10;84
74458;SHT31;62896;51.032;3.712;2023-03-21T22:26:04;9.9;84
74458;SHT31;62896;51.032;3.712;2023-03-21T22:29:24;9.9;84
74458;SHT31;62896;51.032;3.712;2023-03-21T22:32:44;9.9;84
74458;SHT31;62896;51.032;3.712;2023-03-21T22:36:04;9.8;84